Flight Track Log - Related Links

Times and Time Zones

All times are in EDT time to prevent confusion due to time zone crossing. See the ASQ5949 flight status page for this flight to view local times or setup timezone preferences in your user account.

Time Position Orientation Groundspeed Altitude Reporting Facility
EDT Latitude Longitude Course Direction KTS MPH feet Rate Location/Type
Fri 16:53:45 41.9667 -88.0000 348° North 217 250 4,000  Level Chicago TRACON
Fri 16:54:46 41.9667 -88.0833 270° West 265 305 5,700 2,479 Climbing Chicago TRACON
Fri 16:55:00 42.1234 -87.9517 350° North  Level FlightAware Approximate
Fri 16:55:46 42.0167 -88.1500 315° West 266 306 9,000  Level Chicago TRACON
Fri 16:56:00 42.1767 -87.9650 350° North  Level FlightAware Approximate
Fri 16:56:24 42.0572 -88.1856 327° Northwest 284 327 10,200  Level Chicago Center
Fri 16:57:00 42.2283 -87.9867 348° North  Level FlightAware Approximate
Fri 16:57:26 42.1428 -88.1250 28° Northeast 348 400 12,000  Level Chicago Center
Fri 16:58:00 42.2813 -88.0023 348° North  Level FlightAware Approximate
Fri 16:58:28 42.2408 -88.0750 21° North 378 435 12,000  Level Chicago Center
Fri 16:59:30 42.3422 -88.0342 17° North 380 437 12,000 48 Level Chicago Center
Fri 17:00:33 42.4439 -88.0328 North 367 422 12,100 48 Climbing Chicago Center
Fri 17:01:34 42.5617 -88.0450 356° North 363 418 12,100 -49 Level Chicago Center
Fri 17:02:36 42.6561 -88.0969 338° Northwest 365 420 12,000 -48 Descending Chicago Center
Fri 17:03:38 42.7517 -88.1394 342° North 361 415 12,000  Level Chicago Center
Fri 17:04:40 42.8428 -88.1981 335° Northwest 361 415 12,000 -97 Level Chicago Center
Fri 17:05:42 42.8853 -88.3139 297° West 343 395 11,800 -624 Descending Chicago Center
Fri 17:06:45 42.9169 -88.4406 289° West 346 398 10,700 -912 Descending Chicago Center
Fri 17:07:47 42.9544 -88.5811 290° West 338 389 9,900 -339 Descending Chicago Center
Fri 17:08:49 42.9833 -88.6972 289° West 326 375 10,000 48 Climbing Chicago Center
Fri 17:09:51 43.0328 -88.8019 303° West 328 377 10,000 -726 Level Chicago Center
Fri 17:10:53 43.0733 -88.8869 303° West 279 321 8,500 -1,597 Descending Chicago Center
Fri 17:11:55 43.1172 -88.9661 307° West 266 306 6,700 -1,839 Descending Chicago Center
Fri 17:12:57 43.1597 -89.0461 306° West 261 300 4,700 -1,645 Descending Chicago Center
Fri 17:13:59 43.2050 -89.1425 303° West 259 298 3,300 -1,355 Descending Chicago Center

Login

Don't have an account? Register now (free) for customized features, flight alerts, and more!